createdAt,value
2018-05-24T00:02:23.921Z,67.80
2018-05-24T00:04:52.957Z,70.20
2018-05-24T00:07:21.179Z,70.10
2018-05-24T00:09:49.515Z,68.60
2018-05-24T00:12:17.808Z,70.00
2018-05-24T00:14:46.072Z,69.70
2018-05-24T00:17:14.315Z,69.20
2018-05-24T00:19:42.907Z,68.60
2018-05-24T00:22:11.178Z,68.80
2018-05-24T00:24:39.424Z,70.00
2018-05-24T00:27:07.683Z,70.80
2018-05-24T00:29:36.695Z,70.50
2018-05-24T00:32:04.933Z,70.40
2018-05-24T00:34:33.235Z,70.50
2018-05-24T00:37:02.256Z,70.50
2018-05-24T00:39:30.517Z,70.60
2018-05-24T00:41:59.528Z,70.70
2018-05-24T00:44:27.760Z,70.60
2018-05-24T00:46:56.192Z,71.00
2018-05-24T00:49:25.927Z,70.50
2018-05-24T00:51:54.160Z,70.70
2018-05-24T00:54:23.440Z,70.90
2018-05-24T00:56:51.689Z,70.90
2018-05-24T00:59:19.920Z,70.50
2018-05-24T01:01:48.175Z,71.10
2018-05-24T01:04:16.492Z,71.70
2018-05-24T01:06:44.772Z,72.50
2018-05-24T01:09:13.781Z,72.70
2018-05-24T01:11:42.788Z,71.90
2018-05-24T01:14:11.029Z,71.70
2018-05-24T01:16:39.283Z,71.50
2018-05-24T01:19:07.952Z,70.70
2018-05-24T01:21:36.201Z,71.20
2018-05-24T01:24:05.956Z,70.00
2018-05-24T01:26:34.209Z,70.00
2018-05-24T01:29:03.256Z,70.90
2018-05-24T01:31:31.500Z,71.00
2018-05-24T01:33:59.746Z,70.50
2018-05-24T01:36:54.585Z,70.10
2018-05-24T01:39:22.836Z,68.80
2018-05-24T01:41:52.517Z,67.80
2018-05-24T01:44:20.773Z,67.70
2018-05-24T01:46:49.908Z,66.60
2018-05-24T01:49:18.151Z,69.20
2018-05-24T01:51:46.407Z,67.50
2018-05-24T01:54:15.390Z,66.40
2018-05-24T01:56:44.409Z,67.90
2018-05-24T01:59:12.683Z,67.80
2018-05-24T02:01:40.995Z,66.50
2018-05-24T02:04:09.220Z,67.50
2018-05-24T02:06:38.308Z,67.50
2018-05-24T02:09:06.536Z,67.40
2018-05-24T02:11:35.380Z,68.20
2018-05-24T02:14:03.628Z,68.20
2018-05-24T02:16:31.883Z,69.00
2018-05-24T02:19:00.239Z,68.90
2018-05-24T02:21:29.364Z,70.90
2018-05-24T02:23:57.600Z,70.50
2018-05-24T02:26:25.851Z,69.50
2018-05-24T02:28:54.077Z,71.20
2018-05-24T02:31:22.329Z,70.70
2018-05-24T02:33:50.675Z,70.10
2018-05-24T02:36:19.432Z,71.20
2018-05-24T02:38:47.684Z,71.60
2018-05-24T02:41:15.949Z,71.40
2018-05-24T02:43:44.184Z,71.30
2018-05-24T02:46:12.544Z,71.00
2018-05-24T02:48:40.822Z,72.90
2018-05-24T02:51:09.232Z,74.00
2018-05-24T02:53:37.469Z,73.20
2018-05-24T02:56:05.712Z,75.60
2018-05-24T02:58:34.712Z,74.70
2018-05-24T03:01:03.043Z,74.70
2018-05-24T03:03:31.309Z,75.00
2018-05-24T03:05:59.539Z,75.50
2018-05-24T03:08:28.548Z,77.20
2018-05-24T03:10:57.540Z,76.60
2018-05-24T03:13:26.561Z,78.00
2018-05-24T03:15:54.788Z,78.00
2018-05-24T03:18:23.928Z,80.60
2018-05-24T03:20:52.919Z,80.70
2018-05-24T03:23:21.934Z,81.20
2018-05-24T03:25:50.167Z,81.20
2018-05-24T03:28:18.609Z,82.20
2018-05-24T03:30:46.873Z,81.40
2018-05-24T03:33:15.882Z,81.50
2018-05-24T03:35:44.118Z,81.30
2018-05-24T03:38:12.400Z,81.50
2018-05-24T03:40:41.376Z,82.00
2018-05-24T03:43:09.629Z,82.70
2018-05-24T03:45:37.876Z,83.70
2018-05-24T03:48:06.883Z,84.40
2018-05-24T03:50:35.937Z,84.80
2018-05-24T03:53:04.248Z,84.70
2018-05-24T03:55:33.061Z,85.00
2018-05-24T03:58:02.095Z,84.80
2018-05-24T04:00:42.311Z,84.80
2018-05-24T04:03:22.519Z,84.50
2018-05-24T04:05:51.479Z,85.20
2018-05-24T04:08:20.335Z,85.30
2018-05-24T04:10:48.556Z,84.10
2018-05-24T04:13:16.909Z,84.20
2018-05-24T04:15:45.137Z,84.70
2018-05-24T04:18:13.405Z,84.00
2018-05-24T04:20:41.633Z,83.80
2018-05-24T04:23:09.975Z,84.00
2018-05-24T04:25:38.147Z,85.00
2018-05-24T04:28:06.400Z,83.40
2018-05-24T04:30:35.399Z,84.20
2018-05-24T04:33:04.508Z,84.90
2018-05-24T04:35:32.705Z,84.80
2018-05-24T04:38:00.968Z,85.00
2018-05-24T04:40:29.969Z,86.50
2018-05-24T04:42:58.998Z,87.50
2018-05-24T04:45:27.292Z,87.50
2018-05-24T04:47:55.548Z,88.00
2018-05-24T04:50:23.772Z,88.20
2018-05-24T04:52:52.488Z,88.50
2018-05-24T04:55:21.655Z,89.10
2018-05-24T04:57:50.609Z,90.00
2018-05-24T05:00:18.855Z,90.00
2018-05-24T05:02:47.127Z,90.50
2018-05-24T05:05:15.356Z,90.70
2018-05-24T05:07:43.614Z,90.60
2018-05-24T05:10:12.604Z,91.00
2018-05-24T05:12:41.673Z,91.60
2018-05-24T05:15:10.803Z,91.20
2018-05-24T05:17:39.197Z,91.00
2018-05-24T05:20:08.685Z,91.20
2018-05-24T05:22:36.974Z,91.10
2018-05-24T05:25:05.543Z,91.10
2018-05-24T05:27:33.693Z,91.10
2018-05-24T05:30:02.039Z,91.00
2018-05-24T05:32:31.042Z,91.20
2018-05-24T05:35:00.069Z,91.10
2018-05-24T05:37:28.298Z,91.10
2018-05-24T05:39:56.564Z,91.30
2018-05-24T05:42:24.825Z,91.50
2018-05-24T05:44:53.095Z,91.80
2018-05-24T05:47:22.059Z,91.60
2018-05-24T05:49:51.107Z,91.40
2018-05-24T05:52:20.117Z,91.40
2018-05-24T05:54:49.717Z,91.80
2018-05-24T05:57:18.059Z,91.80
2018-05-24T05:59:46.882Z,91.50
2018-05-24T06:02:15.118Z,91.40
2018-05-24T06:04:44.231Z,91.50
2018-05-24T06:07:13.248Z,91.50
2018-05-24T06:09:41.553Z,91.50
2018-05-24T06:12:10.521Z,91.70
2018-05-24T06:14:38.784Z,91.70
2018-05-24T06:17:07.802Z,91.80
2018-05-24T06:19:36.053Z,91.80
2018-05-24T06:22:04.287Z,91.80
2018-05-24T06:24:32.530Z,91.70
2018-05-24T06:27:01.548Z,91.90
2018-05-24T06:29:29.814Z,91.90
2018-05-24T06:31:58.864Z,91.00
2018-05-24T06:34:28.022Z,91.00
2018-05-24T06:36:57.023Z,90.50
2018-05-24T06:39:25.733Z,90.50
2018-05-24T06:41:53.968Z,90.80
2018-05-24T06:44:24.476Z,90.40
2018-05-24T06:46:52.709Z,90.10
2018-05-24T06:49:21.636Z,90.00
2018-05-24T06:51:49.913Z,90.00
2018-05-24T06:54:18.746Z,89.90
2018-05-24T06:56:46.959Z,88.20
2018-05-24T06:59:17.201Z,88.50
2018-05-24T07:01:45.446Z,87.10
2018-05-24T07:04:15.897Z,86.20
2018-05-24T07:06:44.139Z,86.10
2018-05-24T07:09:12.392Z,86.60
2018-05-24T07:11:41.072Z,86.50
2018-05-24T07:14:09.341Z,86.70
2018-05-24T07:16:37.623Z,86.20
2018-05-24T07:19:05.864Z,86.70
2018-05-24T07:21:34.110Z,86.80
2018-05-24T07:24:02.425Z,87.20
2018-05-24T07:26:30.692Z,87.40
2018-05-24T07:28:59.114Z,87.50
2018-05-24T07:31:28.580Z,89.70
2018-05-24T07:33:56.814Z,89.70
2018-05-24T07:36:25.206Z,89.60
2018-05-24T07:38:53.470Z,90.30
2018-05-24T07:41:23.058Z,90.40
2018-05-24T07:43:51.284Z,90.10
2018-05-24T07:46:19.601Z,90.40
2018-05-24T07:48:47.827Z,90.40
2018-05-24T07:51:16.096Z,90.40
2018-05-24T07:53:45.154Z,90.20
2018-05-24T07:56:13.755Z,90.20
2018-05-24T07:58:43.531Z,90.20
2018-05-24T08:01:11.912Z,90.20
2018-05-24T08:03:41.021Z,90.30
2018-05-24T08:06:09.283Z,90.50
2018-05-24T08:08:37.648Z,89.70
2018-05-24T08:11:05.841Z,89.10
2018-05-24T08:13:34.106Z,88.00
2018-05-24T08:16:03.303Z,89.30
2018-05-24T08:18:32.319Z,88.10
2018-05-24T08:21:01.537Z,88.30
2018-05-24T08:23:30.077Z,88.20
2018-05-24T08:25:58.468Z,87.30
2018-05-24T08:30:36.592Z,87.60
2018-05-24T08:33:04.840Z,87.50
2018-05-24T08:35:33.083Z,86.30
2018-05-24T08:38:02.078Z,84.10
2018-05-24T08:40:30.440Z,84.10
2018-05-24T08:42:59.490Z,86.20
2018-05-24T08:45:27.765Z,86.10
2018-05-24T08:47:56.093Z,84.80
2018-05-24T08:50:25.077Z,84.50
2018-05-24T08:52:53.308Z,83.70
2018-05-24T08:55:22.342Z,84.90
2018-05-24T08:57:50.595Z,84.80
2018-05-24T09:00:21.068Z,84.20
2018-05-24T09:02:49.319Z,84.10
2018-05-24T09:05:17.568Z,84.70
2018-05-24T09:07:45.820Z,85.00
2018-05-24T09:10:14.060Z,84.90
2018-05-24T09:12:42.895Z,84.60
2018-05-24T09:15:11.150Z,84.60
2018-05-24T09:17:39.391Z,84.30
2018-05-24T09:20:07.690Z,84.50
2018-05-24T09:22:37.786Z,83.60
2018-05-24T09:25:06.069Z,83.60
2018-05-24T09:27:34.314Z,84.00
2018-05-24T09:30:02.701Z,83.50
2018-05-24T09:32:31.686Z,82.90
2018-05-24T09:34:59.952Z,82.70
2018-05-24T09:37:29.712Z,82.30
2018-05-24T09:39:58.570Z,82.30
2018-05-24T09:42:26.861Z,82.80
2018-05-24T09:44:55.111Z,82.80
2018-05-24T09:47:24.170Z,82.70
2018-05-24T09:49:52.419Z,82.60
2018-05-24T09:52:20.744Z,81.70
2018-05-24T09:54:48.988Z,82.00
2018-05-24T09:57:17.250Z,81.90
2018-05-24T09:59:46.255Z,82.10
2018-05-24T10:02:14.530Z,82.00
2018-05-24T10:04:42.882Z,81.80
2018-05-24T10:07:11.835Z,81.90
2018-05-24T10:09:40.085Z,81.90
2018-05-24T10:12:09.081Z,81.70
2018-05-24T10:14:37.349Z,81.90
2018-05-24T10:17:05.630Z,81.90
2018-05-24T10:19:35.471Z,81.20
2018-05-24T10:22:03.796Z,81.20
2018-05-24T10:24:32.048Z,81.30
2018-05-24T10:27:00.929Z,80.30
2018-05-24T10:29:29.210Z,80.30
2018-05-24T10:31:57.424Z,80.30
2018-05-24T10:34:25.672Z,80.70
2018-05-24T10:36:53.920Z,80.00
2018-05-24T10:39:22.936Z,80.60
2018-05-24T10:41:51.970Z,80.70
2018-05-24T10:44:20.199Z,80.60
2018-05-24T10:46:49.221Z,81.70
2018-05-24T10:49:17.469Z,80.60
2018-05-24T10:51:45.744Z,80.10
2018-05-24T10:54:14.028Z,80.50
2018-05-24T10:56:42.325Z,79.20
2018-05-24T10:59:10.554Z,77.40
2018-05-24T11:01:38.824Z,77.10
2018-05-24T11:04:07.202Z,75.50
2018-05-24T11:06:36.071Z,77.00
2018-05-24T11:09:06.908Z,77.40
2018-05-24T11:11:37.249Z,76.50
2018-05-24T11:14:05.456Z,76.40
2018-05-24T11:16:34.124Z,76.00
2018-05-24T11:19:02.372Z,74.50
2018-05-24T11:21:30.625Z,74.50
2018-05-24T11:23:58.859Z,73.40
2018-05-24T11:26:27.868Z,73.70
2018-05-24T11:28:56.121Z,73.70
2018-05-24T11:31:26.023Z,73.20
2018-05-24T11:33:54.275Z,72.70
2018-05-24T11:36:23.377Z,72.20
2018-05-24T11:38:51.696Z,72.10
2018-05-24T11:41:19.950Z,71.00
2018-05-24T11:43:48.956Z,71.10
2018-05-24T11:46:17.246Z,71.00
2018-05-24T11:48:45.488Z,70.80
2018-05-24T11:51:13.755Z,71.40
2018-05-24T11:53:42.747Z,70.10
2018-05-24T11:56:11.759Z,70.10
2018-05-24T11:58:40.025Z,69.80
2018-05-24T12:01:09.184Z,68.20
2018-05-24T12:03:37.420Z,68.20
2018-05-24T12:06:05.699Z,66.90
2018-05-24T12:08:33.960Z,67.20
2018-05-24T12:11:02.972Z,67.50
2018-05-24T12:13:31.231Z,67.50
2018-05-24T12:16:00.316Z,65.30
2018-05-24T12:18:28.575Z,66.10
2018-05-24T12:20:56.805Z,65.00
2018-05-24T12:23:25.833Z,62.40
2018-05-24T12:25:54.058Z,62.20
2018-05-24T12:28:22.320Z,61.10
2018-05-24T12:30:51.405Z,61.50
2018-05-24T12:33:19.651Z,61.30
2018-05-24T12:35:48.669Z,61.20
2018-05-24T12:38:16.917Z,61.20
2018-05-24T12:40:45.923Z,62.40
2018-05-24T12:43:14.992Z,62.50
2018-05-24T12:45:43.381Z,62.50
2018-05-24T12:48:11.632Z,65.10
2018-05-24T12:50:39.886Z,66.70
2018-05-24T12:53:08.132Z,69.00
2018-05-24T12:55:36.397Z,69.70
2018-05-24T12:58:04.736Z,71.40
2018-05-24T13:00:33.671Z,72.80
2018-05-24T13:03:02.002Z,74.50
2018-05-24T13:05:30.992Z,75.00
2018-05-24T13:08:00.023Z,76.60
2018-05-24T13:10:28.257Z,76.60
2018-05-24T13:12:56.552Z,77.80
2018-05-24T13:15:24.794Z,78.90
2018-05-24T13:17:53.047Z,79.20
2018-05-24T13:20:22.062Z,81.60
2018-05-24T13:22:51.014Z,81.20
2018-05-24T13:25:20.012Z,81.50
2018-05-24T13:27:49.029Z,81.70
2018-05-24T13:30:17.253Z,81.80
2018-05-24T13:32:45.513Z,81.50
2018-05-24T13:35:13.763Z,81.20
2018-05-24T13:37:42.019Z,81.50
2018-05-24T13:40:11.021Z,81.90
2018-05-24T13:42:40.881Z,81.80
2018-05-24T13:45:09.135Z,81.80
2018-05-24T13:47:37.469Z,82.10
2018-05-24T13:50:05.736Z,82.30
2018-05-24T13:52:34.073Z,81.90
2018-05-24T13:55:02.279Z,82.00
2018-05-24T13:57:42.251Z,82.30
2018-05-24T14:00:10.871Z,82.60
2018-05-24T14:02:39.132Z,82.60
2018-05-24T14:05:08.109Z,81.60
2018-05-24T14:07:36.383Z,81.50
2018-05-24T14:10:04.663Z,80.80
2018-05-24T14:12:35.291Z,80.20
2018-05-24T14:15:04.352Z,80.30
2018-05-24T14:17:32.738Z,79.50
2018-05-24T14:20:00.939Z,79.70
2018-05-24T14:22:29.245Z,79.70
2018-05-24T14:24:57.555Z,79.60
2018-05-24T14:27:25.784Z,80.10
2018-05-24T14:29:54.030Z,79.90
2018-05-24T14:32:22.379Z,79.90
2018-05-24T14:34:51.474Z,79.80
2018-05-24T14:37:19.725Z,79.20
2018-05-24T14:39:48.744Z,79.00
2018-05-24T14:42:16.987Z,79.00
2018-05-24T14:44:46.008Z,79.80
2018-05-24T14:47:14.285Z,79.10
2018-05-24T14:49:44.291Z,78.10
2018-05-24T14:52:13.318Z,78.00
2018-05-24T14:54:42.083Z,78.20
2018-05-24T14:57:11.081Z,77.00
2018-05-24T14:59:40.103Z,76.20
2018-05-24T15:02:08.453Z,76.20
2018-05-24T15:04:36.728Z,76.70
2018-05-24T15:07:04.978Z,77.30
2018-05-24T15:09:33.591Z,77.40
2018-05-24T15:12:01.833Z,77.80
2018-05-24T15:14:30.079Z,78.00
2018-05-24T15:16:59.097Z,77.50
2018-05-24T15:19:27.644Z,77.50
2018-05-24T15:21:55.893Z,76.70
2018-05-24T15:24:24.145Z,76.60
2018-05-24T15:26:52.392Z,76.30
2018-05-24T15:29:21.432Z,76.20
2018-05-24T15:31:50.529Z,76.00
2018-05-24T15:34:18.793Z,76.20
2018-05-24T15:36:48.566Z,77.60
2018-05-24T15:39:16.839Z,77.60
2018-05-24T15:41:45.168Z,78.10
2018-05-24T15:44:14.191Z,79.30
2018-05-24T15:46:42.884Z,79.30
2018-05-24T15:49:11.166Z,80.50
2018-05-24T15:51:39.503Z,80.00
2018-05-24T15:54:07.753Z,80.40
2018-05-24T15:56:36.012Z,81.40
2018-05-24T15:59:04.900Z,82.60
2018-05-24T16:01:33.158Z,82.80
2018-05-24T16:04:02.187Z,83.20
2018-05-24T16:06:30.463Z,83.20
2018-05-24T16:08:58.725Z,83.20
2018-05-24T16:11:29.344Z,83.40
2018-05-24T16:13:58.368Z,83.50
2018-05-24T16:16:26.830Z,83.80
2018-05-24T16:18:55.093Z,83.70
2018-05-24T16:21:23.846Z,84.90
2018-05-24T16:23:52.097Z,84.50
2018-05-24T16:26:21.141Z,84.60
2018-05-24T16:28:49.398Z,84.60
2018-05-24T16:31:18.282Z,84.90
2018-05-24T16:33:47.285Z,84.70
2018-05-24T16:36:15.674Z,84.70
2018-05-24T16:38:43.965Z,84.90
2018-05-24T16:41:12.245Z,85.20
2018-05-24T16:43:41.114Z,85.20
2018-05-24T16:46:10.127Z,84.20
2018-05-24T16:48:38.430Z,84.10
2018-05-24T16:51:07.371Z,83.90
2018-05-24T16:53:36.339Z,84.40
2018-05-24T16:56:04.624Z,84.70
2018-05-24T16:58:34.122Z,85.20
2018-05-24T17:01:02.371Z,85.70
2018-05-24T17:03:31.400Z,85.80
2018-05-24T17:05:59.683Z,86.30
2018-05-24T17:08:27.908Z,87.00
2018-05-24T17:10:56.957Z,87.80
2018-05-24T17:13:26.103Z,87.80
2018-05-24T17:15:55.115Z,88.90
2018-05-24T17:18:24.237Z,88.40
2018-05-24T17:20:52.509Z,88.40
2018-05-24T17:23:21.535Z,88.10
2018-05-24T17:25:49.934Z,88.00
2018-05-24T17:28:18.202Z,87.50
2018-05-24T17:30:47.269Z,87.40
2018-05-24T17:33:15.623Z,87.40
2018-05-24T17:35:43.899Z,87.00
2018-05-24T17:38:12.151Z,87.00
2018-05-24T17:40:40.429Z,87.20
2018-05-24T17:43:09.925Z,87.20
2018-05-24T17:45:38.964Z,87.80
2018-05-24T17:48:08.109Z,86.80
2018-05-24T17:50:37.013Z,87.20
2018-05-24T17:53:06.680Z,87.00
2018-05-24T17:55:35.642Z,87.00
2018-05-24T17:58:04.371Z,86.70
2018-05-24T18:00:32.678Z,86.90
2018-05-24T18:03:00.941Z,87.70
2018-05-24T18:05:29.211Z,87.50
2018-05-24T18:07:59.070Z,87.20
2018-05-24T18:10:28.175Z,87.00
2018-05-24T18:12:56.455Z,87.00
2018-05-24T18:15:25.492Z,87.30
2018-05-24T18:17:54.347Z,87.30
2018-05-24T18:20:22.619Z,87.30
2018-05-24T18:22:51.901Z,87.60
2018-05-24T18:25:20.144Z,87.60
2018-05-24T18:27:48.403Z,88.10
2018-05-24T18:30:17.609Z,88.20
2018-05-24T18:32:47.569Z,88.20
2018-05-24T18:35:15.833Z,88.20
2018-05-24T18:37:44.135Z,88.20
2018-05-24T18:40:12.413Z,88.20
2018-05-24T18:42:40.776Z,88.50
2018-05-24T18:45:09.053Z,89.00
2018-05-24T18:47:37.383Z,89.00
2018-05-24T18:50:05.665Z,89.30
2018-05-24T18:52:33.997Z,89.00
2018-05-24T18:55:02.281Z,89.90
2018-05-24T18:57:30.574Z,89.70
2018-05-24T18:59:58.833Z,89.50
2018-05-24T19:02:27.143Z,89.50
2018-05-24T19:04:55.380Z,89.60
2018-05-24T19:07:24.868Z,89.70
2018-05-24T19:09:53.151Z,89.70
2018-05-24T19:12:21.468Z,90.10
2018-05-24T19:14:49.726Z,89.60
2018-05-24T19:17:18.769Z,90.10
2018-05-24T19:19:47.256Z,90.00
2018-05-24T19:22:15.526Z,90.00
2018-05-24T19:24:43.771Z,90.00
2018-05-24T19:27:12.823Z,90.40
2018-05-24T19:29:41.110Z,90.00
2018-05-24T19:32:09.363Z,90.20
2018-05-24T19:34:37.631Z,90.40
2018-05-24T19:37:06.688Z,90.20
2018-05-24T19:39:34.962Z,90.20
2018-05-24T19:42:04.199Z,90.20
2018-05-24T19:44:33.709Z,90.30
2018-05-24T19:47:02.803Z,90.20
2018-05-24T19:49:32.696Z,90.50
2018-05-24T19:52:00.967Z,90.40
2018-05-24T19:54:29.240Z,90.30
2018-05-24T19:56:57.589Z,90.20
2018-05-24T19:59:25.851Z,90.10
2018-05-24T20:01:55.238Z,90.20
2018-05-24T20:04:23.696Z,90.10
2018-05-24T20:06:52.029Z,90.10
2018-05-24T20:09:21.941Z,90.20
2018-05-24T20:11:50.988Z,90.20
2018-05-24T20:14:19.489Z,90.20
2018-05-24T20:16:47.776Z,90.20
2018-05-24T20:19:16.640Z,90.10
2018-05-24T20:21:44.927Z,90.10
2018-05-24T20:24:13.175Z,90.10
2018-05-24T20:26:42.231Z,90.30
2018-05-24T20:29:10.509Z,90.20
2018-05-24T20:31:38.820Z,90.30
2018-05-24T20:34:07.098Z,90.40
2018-05-24T20:36:35.357Z,90.20
2018-05-24T20:39:03.678Z,90.20
2018-05-24T20:41:32.148Z,90.20
2018-05-24T20:44:00.468Z,90.20
2018-05-24T20:46:30.775Z,90.50
2018-05-24T20:48:59.015Z,90.50
2018-05-24T20:51:27.275Z,90.50
2018-05-24T20:53:55.662Z,90.40
2018-05-24T20:56:23.969Z,90.40
2018-05-24T20:58:52.221Z,90.50
2018-05-24T21:01:20.479Z,90.50
2018-05-24T21:03:48.807Z,90.50
2018-05-24T21:06:17.823Z,90.60
2018-05-24T21:08:46.556Z,90.60
2018-05-24T21:11:14.814Z,90.50
2018-05-24T21:13:44.636Z,90.70
2018-05-24T21:16:13.444Z,90.60
2018-05-24T21:18:42.563Z,90.70
2018-05-24T21:21:11.572Z,90.80
2018-05-24T21:23:40.581Z,90.80
2018-05-24T21:26:08.857Z,90.80
2018-05-24T21:28:37.608Z,91.00
2018-05-24T21:31:06.631Z,91.40
2018-05-24T21:33:34.920Z,91.40
2018-05-24T21:36:03.148Z,91.20
2018-05-24T21:38:32.216Z,91.70
2018-05-24T21:41:00.490Z,91.30
2018-05-24T21:43:28.849Z,91.30
2018-05-24T21:45:57.103Z,91.40
2018-05-24T21:48:26.997Z,91.50
2018-05-24T21:50:55.983Z,91.50
2018-05-24T21:53:24.231Z,91.60
2018-05-24T21:55:52.476Z,91.60
2018-05-24T21:58:21.511Z,91.80
2018-05-24T22:00:50.760Z,91.80
2018-05-24T22:03:19.791Z,91.70
2018-05-24T22:05:48.806Z,91.80
2018-05-24T22:08:17.095Z,91.80
2018-05-24T22:10:45.335Z,92.00
2018-05-24T22:13:14.382Z,92.00
2018-05-24T22:15:42.627Z,92.00
2018-05-24T22:18:11.719Z,91.90
2018-05-24T22:20:40.762Z,92.30
2018-05-24T22:23:09.040Z,92.10
2018-05-24T22:25:37.373Z,92.10
2018-05-24T22:28:06.523Z,92.10
2018-05-24T22:30:34.761Z,92.20
2018-05-24T22:33:03.127Z,92.20
2018-05-24T22:35:31.415Z,92.40
2018-05-24T22:37:59.703Z,92.30
2018-05-24T22:40:28.019Z,92.60
2018-05-24T22:42:57.012Z,92.50
2018-05-24T22:45:26.188Z,92.60
2018-05-24T22:47:54.525Z,92.50
2018-05-24T22:50:24.186Z,92.90
2018-05-24T22:52:52.428Z,92.60
2018-05-24T22:55:20.692Z,92.60
2018-05-24T22:57:48.958Z,93.10
2018-05-24T23:00:17.784Z,92.80
2018-05-24T23:02:46.062Z,92.90
2018-05-24T23:05:14.363Z,92.80
2018-05-24T23:07:42.605Z,92.90
2018-05-24T23:10:10.893Z,93.10
2018-05-24T23:12:39.196Z,93.10
2018-05-24T23:15:07.700Z,93.20
2018-05-24T23:17:36.216Z,93.00
2018-05-24T23:20:04.552Z,93.10
2018-05-24T23:22:37.692Z,93.10
2018-05-24T23:25:06.739Z,93.30
2018-05-24T23:27:35.024Z,93.30
2018-05-24T23:30:03.293Z,93.30
2018-05-24T23:32:31.668Z,93.30
2018-05-24T23:34:59.920Z,93.40
2018-05-24T23:37:28.948Z,93.30
2018-05-24T23:39:57.347Z,93.30
2018-05-24T23:42:26.460Z,93.50
2018-05-24T23:44:54.739Z,93.60
2018-05-24T23:47:23.040Z,93.90
2018-05-24T23:49:51.325Z,93.90
2018-05-24T23:52:19.599Z,93.90
2018-05-24T23:54:47.880Z,94.20
2018-05-24T23:57:17.008Z,94.10
2018-05-24T23:59:46.124Z,94.10
